Time;durP1;ratioP1;P1;durP2;ratioP2;P2;SDS_P1;SDS_P2;PMS_P1;PMS_P2;Temp;Humidity;BMP_temperature;BMP_pressure;BME280_temperature;BME280_humidity;BME280_pressure;Samples;Min_cycle;Max_cycle;Signal;HPM_P1;HPM_P2
2022/03/18 00:02:11;;;;;;;14.05;4.57;;;;;;;-0.25;100.00;103102.13;5027807;28;20044;-82
2022/03/18 00:04:37;;;;;;;13.88;4.85;;;;;;;-0.08;100.00;103125.41;5061023;28;20028;-80
2022/03/18 00:07:03;;;;;;;4.53;2.67;;;;;;;0.03;100.00;103126.81;5064300;28;20033;-82
2022/03/18 00:09:29;;;;;;;13.43;4.55;;;;;;;0.12;100.00;103118.59;5062816;28;20094;-82
2022/03/18 00:11:54;;;;;;;18.25;5.13;;;;;;;0.08;100.00;103109.91;5049801;28;20036;-80
2022/03/18 00:14:21;;;;;;;13.20;4.25;;;;;;;0.05;100.00;103120.56;5064544;28;20032;-83
2022/03/18 00:16:46;;;;;;;13.43;4.28;;;;;;;0.03;100.00;103132.13;5031728;28;20037;-80
2022/03/18 00:19:12;;;;;;;14.23;3.97;;;;;;;-0.05;100.00;103125.31;5032207;28;20605;-82
2022/03/18 00:21:38;;;;;;;19.20;5.47;;;;;;;-0.17;100.00;103127.47;5051432;28;20071;-81
2022/03/18 00:24:05;;;;;;;14.80;4.53;;;;;;;-0.30;100.00;103119.91;5042235;28;20047;-82
2022/03/18 00:26:31;;;;;;;11.48;4.22;;;;;;;-0.32;100.00;103112.94;5038447;28;20033;-80
2022/03/18 00:28:57;;;;;;;10.55;3.80;;;;;;;-0.36;100.00;103122.75;5044148;28;20494;-82
2022/03/18 00:31:23;;;;;;;11.02;4.38;;;;;;;-0.42;100.00;103114.13;5006096;28;1207299;-80
2022/03/18 00:33:48;;;;;;;11.77;3.78;;;;;;;-0.55;100.00;103109.22;5054021;28;20047;-79
2022/03/18 00:36:14;;;;;;;12.50;3.83;;;;;;;-0.53;100.00;103111.81;5037633;28;20028;-81
2022/03/18 00:38:39;;;;;;;17.55;4.53;;;;;;;-0.25;100.00;103112.69;5054458;28;20525;-81
2022/03/18 00:41:06;;;;;;;20.42;4.95;;;;;;;-0.09;100.00;103122.81;5068240;28;20503;-82
2022/03/18 00:43:31;;;;;;;23.02;5.20;;;;;;;-0.12;100.00;103118.47;5070365;28;20101;-80
2022/03/18 00:45:57;;;;;;;23.95;5.40;;;;;;;-0.27;100.00;103122.47;5054287;28;20486;-82
2022/03/18 00:53:53;;;;;;;14.07;4.68;;;;;;;-0.45;100.00;103129.19;5071356;28;20024;-81
2022/03/18 00:56:18;;;;;;;14.48;5.85;;;;;;;-0.43;100.00;103128.28;5065516;28;20389;-80
2022/03/18 00:58:44;;;;;;;10.40;4.43;;;;;;;-0.41;100.00;103134.38;5054167;28;20033;-82
2022/03/18 01:01:10;;;;;;;22.13;4.97;;;;;;;-0.40;100.00;103130.81;5030528;28;20041;-84
2022/03/18 01:03:36;;;;;;;15.23;4.55;;;;;;;-0.43;100.00;103136.19;5045174;28;20097;-83
2022/03/18 01:06:01;;;;;;;13.38;4.63;;;;;;;-0.61;100.00;103119.09;5040437;28;20485;-83
2022/03/18 01:08:28;;;;;;;10.15;3.45;;;;;;;-0.64;100.00;103119.19;5059569;28;20170;-84
2022/03/18 01:10:54;;;;;;;14.35;4.20;;;;;;;-0.59;100.00;103146.34;5056007;28;20033;-83
2022/03/18 01:13:21;;;;;;;10.40;3.97;;;;;;;-0.70;100.00;103146.66;5056796;28;20057;-82
2022/03/18 01:15:46;;;;;;;16.52;3.65;;;;;;;-0.67;100.00;103143.94;5061131;28;20159;-81
2022/03/18 01:18:12;;;;;;;7.70;4.40;;;;;;;-0.65;100.00;103150.06;5043562;28;20055;-82
2022/03/18 01:20:38;;;;;;;10.57;4.22;;;;;;;-0.59;100.00;103149.84;5062482;28;20028;-81
2022/03/18 01:23:06;;;;;;;5.28;2.72;;;;;;;-0.51;100.00;103142.56;5063851;28;20024;-81
2022/03/18 01:25:35;;;;;;;11.38;3.58;;;;;;;-0.45;100.00;103139.75;5065354;28;20032;-81
2022/03/18 01:28:01;;;;;;;13.63;3.80;;;;;;;-0.43;100.00;103146.78;5026756;28;20044;-81
2022/03/18 01:30:30;;;;;;;16.25;3.63;;;;;;;-0.49;100.00;103146.03;5042816;28;20039;-82
2022/03/18 01:33:00;;;;;;;7.55;2.65;;;;;;;-0.52;100.00;103140.84;5026954;28;20125;-83
2022/03/18 01:35:26;;;;;;;15.73;4.03;;;;;;;-0.61;100.00;103143.75;5062459;28;20113;-81
2022/03/18 01:37:52;;;;;;;20.92;4.57;;;;;;;-0.73;100.00;103123.84;5058374;28;20039;-82
2022/03/18 01:40:18;;;;;;;23.92;5.35;;;;;;;-0.80;100.00;103121.44;5025365;28;20394;-81
2022/03/18 01:42:43;;;;;;;18.48;4.68;;;;;;;-0.80;100.00;103114.34;5058815;28;20035;-82
2022/03/18 01:45:09;;;;;;;13.25;5.20;;;;;;;-0.70;100.00;103101.75;5059409;28;20101;-81
2022/03/18 01:47:35;;;;;;;15.27;4.45;;;;;;;-0.54;100.00;103116.25;5042982;28;20478;-81
2022/03/18 01:50:01;;;;;;;26.65;6.35;;;;;;;-0.64;100.00;103098.06;5042920;28;20040;-82
2022/03/18 01:52:27;;;;;;;9.68;2.92;;;;;;;-0.49;100.00;103119.63;5059699;28;20033;-80
2022/03/18 01:54:53;;;;;;;5.88;3.30;;;;;;;-0.49;100.00;103130.19;5057346;28;20052;-79
2022/03/18 01:57:23;;;;;;;15.10;3.92;;;;;;;-0.44;100.00;103124.78;5043208;28;20115;-79
2022/03/18 01:59:51;;;;;;;16.63;5.15;;;;;;;-0.63;100.00;103082.19;5060670;28;20029;-82
2022/03/18 02:02:18;;;;;;;16.05;5.38;;;;;;;-0.32;100.00;103131.44;5059106;28;20094;-81
2022/03/18 02:04:44;;;;;;;16.42;4.65;;;;;;;-0.41;100.00;103123.81;5056219;28;20043;-81
2022/03/18 02:07:11;;;;;;;22.08;4.40;;;;;;;-0.41;100.00;103129.09;5043096;28;20060;-81
2022/03/18 02:09:37;;;;;;;11.80;4.90;;;;;;;-0.57;100.00;103094.34;5072857;28;20082;-82
2022/03/18 02:12:04;;;;;;;9.02;4.32;;;;;;;-0.23;100.00;103142.63;5041253;28;20754;-81
2022/03/18 02:14:31;;;;;;;12.85;4.20;;;;;;;-0.24;100.00;103129.44;5057830;28;21014;-83
2022/03/18 02:16:56;;;;;;;18.50;4.68;;;;;;;-0.21;100.00;103134.66;5058711;28;20097;-82
2022/03/18 02:19:22;;;;;;;12.95;4.43;;;;;;;-0.26;100.00;103136.56;5040551;28;20074;-81
2022/03/18 02:21:49;;;;;;;8.43;3.55;;;;;;;-0.24;100.00;103142.66;5059236;28;20040;-80
2022/03/18 02:24:14;;;;;;;23.83;5.43;;;;;;;-0.22;100.00;103149.63;5026750;28;20054;-83
2022/03/18 02:26:40;;;;;;;4.68;2.70;;;;;;;-0.25;100.00;103154.16;5054691;28;20032;-80
2022/03/18 02:29:06;;;;;;;14.05;4.32;;;;;;;-0.29;100.00;103155.13;5056826;28;20513;-80
2022/03/18 02:31:32;;;;;;;10.40;4.38;;;;;;;-0.29;100.00;103152.50;5034842;28;20474;-84
2022/03/18 02:33:58;;;;;;;15.73;4.55;;;;;;;-0.31;100.00;103152.56;5050578;28;20024;-83
2022/03/18 02:36:23;;;;;;;4.50;2.22;;;;;;;-0.28;100.00;103155.09;5049223;28;20051;-80
2022/03/18 02:38:49;;;;;;;6.68;2.83;;;;;;;-0.28;100.00;103155.09;5066857;28;20035;-81
2022/03/18 02:41:15;;;;;;;16.55;4.07;;;;;;;-0.24;100.00;103167.34;5050582;28;20028;-82
2022/03/18 02:43:41;;;;;;;12.57;3.85;;;;;;;-0.28;100.00;103159.53;5048364;28;20032;-83
2022/03/18 02:46:06;;;;;;;15.60;4.03;;;;;;;-0.34;100.00;103160.59;5033812;28;20067;-81
2022/03/18 02:48:32;;;;;;;11.88;3.90;;;;;;;-0.37;100.00;103149.22;5066682;28;20044;-82
2022/03/18 02:50:57;;;;;;;11.80;4.10;;;;;;;-0.29;100.00;103157.78;5052770;28;20459;-82
2022/03/18 02:53:23;;;;;;;11.15;4.32;;;;;;;-0.33;100.00;103127.94;5068275;28;20028;-82
2022/03/18 02:55:49;;;;;;;13.32;3.55;;;;;;;-0.16;100.00;103148.59;5067936;28;20386;-80
2022/03/18 02:58:14;;;;;;;7.53;3.80;;;;;;;-0.19;100.00;103153.94;5064041;28;20064;-82
2022/03/18 03:00:40;;;;;;;14.75;4.38;;;;;;;-0.23;100.00;103158.47;5060725;28;20112;-82
2022/03/18 03:03:05;;;;;;;12.15;3.85;;;;;;;-0.31;100.00;103143.78;5025773;28;20044;-81
2022/03/18 03:08:15;;;;;;;13.23;3.30;;;;;;;-0.50;100.00;103139.03;5042763;28;20043;-83
2022/03/18 03:10:42;;;;;;;13.32;4.70;;;;;;;-0.68;100.00;103110.50;5038108;28;20730;-81
2022/03/18 03:13:11;;;;;;;10.40;3.90;;;;;;;-0.66;100.00;103135.13;5038747;28;20044;-83
2022/03/18 03:15:38;;;;;;;14.73;4.10;;;;;;;-0.70;100.00;103141.38;5046079;28;20478;-83
2022/03/18 03:18:05;;;;;;;8.90;3.88;;;;;;;-0.76;100.00;103133.66;5078415;28;20048;-83
2022/03/18 03:20:31;;;;;;;17.55;4.82;;;;;;;-0.80;100.00;103140.78;5062931;28;20040;-81
2022/03/18 03:22:57;;;;;;;10.50;3.97;;;;;;;-0.82;100.00;103141.72;5031213;28;20097;-82
2022/03/18 03:25:23;;;;;;;11.73;4.03;;;;;;;-0.82;100.00;103142.63;5068719;28;20036;-82
2022/03/18 03:27:52;;;;;;;11.55;3.22;;;;;;;-0.89;100.00;103141.91;5049551;28;20060;-81
2022/03/18 03:30:18;;;;;;;12.90;3.80;;;;;;;-0.93;100.00;103140.28;5068036;28;20058;-81
2022/03/18 03:32:44;;;;;;;10.73;3.58;;;;;;;-1.03;100.00;103132.63;5034194;28;20474;-84
2022/03/18 03:35:10;;;;;;;12.93;2.65;;;;;;;-1.04;100.00;103138.84;5035307;28;20540;-84
2022/03/18 03:37:36;;;;;;;10.48;4.13;;;;;;;-1.11;100.00;103141.66;5065003;28;20051;-82
2022/03/18 03:40:03;;;;;;;10.45;3.58;;;;;;;-1.20;100.00;103120.75;5065449;28;20024;-83
2022/03/18 03:42:29;;;;;;;14.27;3.45;;;;;;;-1.08;100.00;103137.19;5055980;28;20027;-82
2022/03/18 03:44:55;;;;;;;11.25;3.47;;;;;;;-1.09;100.00;103127.53;5049827;28;20114;-80
2022/03/18 03:47:23;;;;;;;14.02;3.38;;;;;;;-1.04;100.00;103136.19;5054211;28;20036;-83
2022/03/18 03:49:49;;;;;;;9.18;3.17;;;;;;;-1.08;100.00;103135.41;5067671;28;20033;-82
2022/03/18 03:52:15;;;;;;;8.85;3.20;;;;;;;-1.06;100.00;103136.22;5062603;28;20056;-81
2022/03/18 03:54:41;;;;;;;12.82;3.22;;;;;;;-1.07;100.00;103129.22;5069757;28;20515;-82
2022/03/18 03:57:07;;;;;;;10.10;3.10;;;;;;;-1.11;100.00;103135.50;5035475;28;20071;-82
2022/03/18 03:59:33;;;;;;;6.55;3.35;;;;;;;-1.19;100.00;103129.53;5052022;28;20059;-84
2022/03/18 04:01:59;;;;;;;5.65;2.67;;;;;;;-1.29;100.00;103118.38;5032367;28;20473;-83
2022/03/18 04:04:26;;;;;;;10.13;3.05;;;;;;;-1.17;100.00;103123.31;5042080;28;20029;-80
2022/03/18 04:06:52;;;;;;;10.07;3.60;;;;;;;-0.96;100.00;103124.50;5050793;28;20035;-81
2022/03/18 04:09:17;;;;;;;14.13;3.55;;;;;;;-0.77;100.00;103124.84;5050650;28;20036;-83
2022/03/18 04:11:43;;;;;;;13.85;3.42;;;;;;;-0.71;100.00;103124.69;5047895;28;20036;-82
2022/03/18 04:14:09;;;;;;;7.45;2.58;;;;;;;-0.69;100.00;103129.91;5037723;28;20066;-83
2022/03/18 04:16:35;;;;;;;5.75;2.00;;;;;;;-0.59;100.00;103136.66;5030573;28;20044;-83
2022/03/18 04:19:03;;;;;;;7.65;3.15;;;;;;;-0.46;100.00;103135.38;5061700;28;20039;-83
2022/03/18 04:21:29;;;;;;;16.33;3.70;;;;;;;-0.42;100.00;103128.22;5047576;28;20416;-82
2022/03/18 04:23:55;;;;;;;6.53;3.05;;;;;;;-0.41;100.00;103131.75;5059917;28;20378;-83
2022/03/18 04:26:20;;;;;;;10.55;2.85;;;;;;;-0.50;100.00;103125.81;5056117;28;20127;-83
2022/03/18 04:28:46;;;;;;;11.18;3.30;;;;;;;-0.32;100.00;103132.34;5044896;28;20040;-83
2022/03/18 04:31:12;;;;;;;9.90;2.67;;;;;;;-0.10;100.00;103124.59;5053366;28;20386;-84
2022/03/18 04:33:37;;;;;;;4.18;2.45;;;;;;;0.26;100.00;103139.31;5052579;28;20036;-82
2022/03/18 04:36:03;;;;;;;14.93;4.35;;;;;;;0.49;100.00;103135.91;5063899;28;20031;-82
2022/03/18 04:38:29;;;;;;;16.42;3.65;;;;;;;0.68;100.00;103155.53;5053304;28;20042;-82
2022/03/18 04:40:55;;;;;;;19.52;4.07;;;;;;;0.64;100.00;103115.06;5051493;28;20119;-81
2022/03/18 04:43:21;;;;;;;16.02;4.18;;;;;;;0.71;100.00;103110.41;5052760;28;20040;-84
2022/03/18 04:45:46;;;;;;;20.27;4.22;;;;;;;0.78;100.00;103122.50;5035846;28;20040;-83
2022/03/18 04:48:12;;;;;;;19.90;3.75;;;;;;;0.93;100.00;103144.06;5068017;28;20074;-82
2022/03/18 04:50:40;;;;;;;19.70;3.97;;;;;;;0.82;100.00;103134.75;5037044;28;20032;-82
2022/03/18 04:53:06;;;;;;;6.68;1.90;;;;;;;0.73;100.00;103124.47;5069813;28;20032;-82
2022/03/18 04:55:31;;;;;;;17.25;3.42;;;;;;;0.75;100.00;103135.00;5038039;28;20090;-80
2022/03/18 04:57:57;;;;;;;14.13;4.07;;;;;;;0.70;100.00;103140.47;5071573;28;20020;-83
2022/03/18 05:00:24;;;;;;;16.10;3.70;;;;;;;0.62;100.00;103143.38;5061507;28;20020;-83
2022/03/18 05:02:51;;;;;;;11.68;3.08;;;;;;;0.55;100.00;103146.28;5059573;28;20028;-83
2022/03/18 05:05:19;;;;;;;16.02;3.88;;;;;;;0.49;100.00;103136.75;5057383;28;20029;-83
2022/03/18 05:07:52;;;;;;;9.80;3.90;;;;;;;0.42;100.00;103137.88;5057379;28;20025;-82
2022/03/18 05:10:19;;;;;;;17.75;3.63;;;;;;;0.31;100.00;103147.97;5041021;28;20588;-82
2022/03/18 05:12:45;;;;;;;17.27;3.13;;;;;;;0.19;100.00;103155.41;5044079;28;20501;-80
2022/03/18 05:15:11;;;;;;;10.02;3.28;;;;;;;-0.01;100.00;103158.66;5074198;28;21312;-82
2022/03/18 05:17:38;;;;;;;10.85;3.30;;;;;;;-0.06;100.00;103155.28;5065269;28;20047;-83
2022/03/18 05:20:05;;;;;;;8.65;3.17;;;;;;;-0.17;100.00;103157.41;5053591;28;20067;-83
2022/03/18 05:22:31;;;;;;;13.63;3.50;;;;;;;-0.36;100.00;103143.91;5042526;28;20101;-80
2022/03/18 05:25:00;;;;;;;9.00;3.17;;;;;;;-0.43;100.00;103155.56;5058826;28;20437;-81
2022/03/18 05:27:26;;;;;;;12.85;2.72;;;;;;;-0.49;100.00;103153.09;5057170;28;20486;-81
2022/03/18 05:29:52;;;;;;;5.43;2.45;;;;;;;-0.47;100.00;103146.88;5057419;28;20032;-85
2022/03/18 05:32:18;;;;;;;15.25;3.17;;;;;;;-0.49;100.00;103156.63;5044529;28;20032;-83
2022/03/18 05:34:43;;;;;;;10.80;3.03;;;;;;;-0.55;100.00;103155.94;5059362;28;20135;-83
2022/03/18 05:37:17;;;;;;;12.77;2.55;;;;;;;-0.62;100.00;103155.25;5026405;28;20112;-82
2022/03/18 05:39:51;;;;;;;9.95;2.92;;;;;;;-0.69;100.00;103143.09;5058277;28;20489;-79
2022/03/18 05:42:17;;;;;;;12.65;2.70;;;;;;;-0.67;100.00;103167.72;5039828;28;20090;-82
2022/03/18 05:44:43;;;;;;;15.82;3.42;;;;;;;-0.91;100.00;103149.00;5058161;28;20036;-81
2022/03/18 05:47:08;;;;;;;13.35;3.45;;;;;;;-0.85;100.00;103158.53;5074228;28;20028;-85
2022/03/18 05:49:34;;;;;;;11.07;3.80;;;;;;;-0.87;100.00;103163.00;5025849;28;20437;-79
2022/03/18 05:51:59;;;;;;;8.93;2.60;;;;;;;-0.93;100.00;103166.69;5042590;28;20029;-82
2022/03/18 05:54:25;;;;;;;8.60;2.80;;;;;;;-0.91;100.00;103171.91;5027961;28;20494;-83
2022/03/18 05:56:53;;;;;;;13.30;3.20;;;;;;;-0.79;100.00;103165.44;5044180;28;20051;-82
2022/03/18 05:59:24;;;;;;;11.55;2.70;;;;;;;-0.71;100.00;103180.16;5058963;28;20048;-82
2022/03/18 06:01:50;;;;;;;8.43;2.92;;;;;;;-0.77;100.00;103176.81;5039695;28;20024;-84
2022/03/18 06:04:19;;;;;;;6.85;2.67;;;;;;;-1.05;100.00;103132.69;5057148;28;20047;-81
2022/03/18 06:06:47;;;;;;;23.73;3.50;;;;;;;-0.80;100.00;103172.47;5031504;28;20541;-81
2022/03/18 06:11:58;;;;;;;8.27;2.78;;;;;;;-0.81;100.00;103186.59;5062218;28;20042;-82
2022/03/18 06:14:25;;;;;;;7.28;0.88;;;;;;;-0.73;100.00;103157.34;5060038;28;20032;-83
2022/03/18 06:16:56;;;;;;;13.65;3.05;;;;;;;-0.35;100.00;103187.06;5057976;28;20036;-83
2022/03/18 06:19:23;;;;;;;9.73;3.03;;;;;;;-0.23;100.00;103206.06;5057534;28;20036;-82
2022/03/18 06:21:49;;;;;;;12.13;3.08;;;;;;;-0.18;100.00;103192.72;5061250;28;20051;-84
2022/03/18 06:24:16;;;;;;;7.68;2.40;;;;;;;-0.13;100.00;103189.91;5024660;28;20032;-84
2022/03/18 06:26:42;;;;;;;12.20;3.30;;;;;;;-0.14;100.00;103193.47;5040849;28;20036;-82
2022/03/18 06:29:08;;;;;;;14.27;2.95;;;;;;;-0.19;100.00;103190.97;5059928;28;20456;-81
2022/03/18 06:31:34;;;;;;;4.35;1.98;;;;;;;-0.25;100.00;103183.22;5050023;28;20032;-81
2022/03/18 06:34:00;;;;;;;4.82;2.15;;;;;;;-0.18;100.00;103190.06;5050121;28;20521;-83
2022/03/18 06:36:26;;;;;;;5.78;2.60;;;;;;;-0.28;100.00;103183.31;5034376;28;20040;-83
2022/03/18 06:38:52;;;;;;;12.98;1.95;;;;;;;-0.13;100.00;103201.38;5051878;28;20063;-81
2022/03/18 06:41:19;;;;;;;14.30;3.08;;;;;;;-0.05;100.00;103202.00;5046837;28;20390;-83
2022/03/18 06:43:47;;;;;;;11.00;2.63;;;;;;;0.01;100.00;103198.31;5068358;28;20120;-83
2022/03/18 06:46:14;;;;;;;14.43;3.05;;;;;;;-0.07;100.00;103216.19;5051039;28;20029;-83
2022/03/18 06:48:40;;;;;;;19.77;3.42;;;;;;;-0.17;100.00;103210.31;5035043;28;20052;-83
2022/03/18 06:51:06;;;;;;;10.25;2.40;;;;;;;-0.29;100.00;103194.78;5064352;28;20286;-82
2022/03/18 06:53:32;;;;;;;11.98;3.60;;;;;;;-0.26;100.00;103203.53;5064838;28;20040;-82
2022/03/18 06:55:57;;;;;;;7.30;2.65;;;;;;;-0.24;100.00;103207.00;5033659;28;20126;-83
2022/03/18 06:58:25;;;;;;;10.20;2.78;;;;;;;-0.16;100.00;103190.91;5069508;28;20103;-83
2022/03/18 07:00:51;;;;;;;9.68;3.30;;;;;;;0.04;100.00;103194.69;5065862;28;20047;-81
2022/03/18 07:03:16;;;;;;;7.32;3.00;;;;;;;0.02;100.00;103178.00;5047073;28;20036;-80
2022/03/18 07:05:42;;;;;;;19.42;3.42;;;;;;;0.03;100.00;103177.97;5044616;28;20060;-82
2022/03/18 07:08:08;;;;;;;11.57;2.63;;;;;;;0.24;100.00;103186.13;5033288;28;20039;-81
2022/03/18 07:10:33;;;;;;;9.77;2.88;;;;;;;0.37;100.00;103166.28;5052865;28;20040;-83
2022/03/18 07:12:59;;;;;;;7.90;2.55;;;;;;;0.60;100.00;103176.97;5038731;28;20043;-81
2022/03/18 07:15:24;;;;;;;17.35;2.97;;;;;;;0.76;100.00;103184.41;5065959;28;20394;-81
2022/03/18 07:17:58;;;;;;;12.10;2.97;;;;;;;1.02;100.00;103178.19;5036534;28;20406;-81
2022/03/18 07:20:29;;;;;;;7.75;3.17;;;;;;;1.27;100.00;103167.56;5069341;28;20036;-81
2022/03/18 07:22:58;;;;;;;4.78;2.05;;;;;;;1.72;100.00;103180.91;5072176;28;20040;-82
2022/03/18 07:25:24;;;;;;;7.78;2.45;;;;;;;2.19;100.00;103180.78;5067634;28;20031;-84
2022/03/18 07:27:49;;;;;;;10.38;2.55;;;;;;;2.39;100.00;103172.03;5071658;28;20024;-82
2022/03/18 07:30:15;;;;;;;15.18;2.78;;;;;;;2.69;100.00;103173.47;5064629;28;20028;-84
2022/03/18 07:32:41;;;;;;;11.07;3.08;;;;;;;2.93;100.00;103175.06;5050453;28;20043;-80
2022/03/18 07:35:07;;;;;;;13.13;3.85;;;;;;;2.97;100.00;103168.69;5033756;28;20040;-82
2022/03/18 07:37:33;;;;;;;1.23;1.08;;;;;;;3.12;100.00;103163.63;5050775;28;20036;-81
2022/03/18 07:39:59;;;;;;;13.52;2.83;;;;;;;3.63;100.00;103167.53;5078026;28;20027;-80
2022/03/18 07:42:24;;;;;;;19.83;4.30;;;;;;;4.01;100.00;103172.81;5061472;28;20086;-83
2022/03/18 07:44:50;;;;;;;15.07;3.10;;;;;;;4.09;100.00;103176.81;5047528;28;20036;-82
2022/03/18 07:47:15;;;;;;;12.57;3.08;;;;;;;4.51;100.00;103180.13;5033120;28;20037;-82
2022/03/18 07:49:41;;;;;;;20.27;3.65;;;;;;;5.22;100.00;103180.00;5062745;28;20036;-81
2022/03/18 07:52:07;;;;;;;10.05;3.08;;;;;;;5.97;100.00;103178.59;5031892;28;20032;-83
2022/03/18 07:54:33;;;;;;;12.15;3.47;;;;;;;7.08;100.00;103183.66;5064500;28;20559;-82
2022/03/18 07:57:01;;;;;;;11.35;4.43;;;;;;;8.40;96.13;103191.38;5071530;28;20037;-83
2022/03/18 07:59:27;;;;;;;11.80;3.90;;;;;;;9.40;91.96;103187.22;5053014;28;20052;-82
2022/03/18 08:01:52;;;;;;;18.20;4.75;;;;;;;10.13;90.42;103184.59;5066723;28;20096;-82
2022/03/18 08:04:18;;;;;;;17.63;4.43;;;;;;;10.98;86.87;103183.59;5055134;28;20059;-84
2022/03/18 08:06:45;;;;;;;16.95;5.80;;;;;;;11.55;83.97;103193.44;5050842;28;20031;-81
2022/03/18 08:09:11;;;;;;;10.20;4.22;;;;;;;12.02;81.77;103204.94;5034717;28;20044;-80
2022/03/18 08:11:37;;;;;;;11.38;4.68;;;;;;;12.21;79.12;103204.28;5075949;28;20073;-82
2022/03/18 08:14:03;;;;;;;8.85;3.95;;;;;;;12.33;78.58;103194.31;5068332;28;20055;-81
2022/03/18 08:16:29;;;;;;;13.98;3.63;;;;;;;12.58;77.15;103206.63;5074717;28;20051;-84
2022/03/18 08:18:57;;;;;;;17.20;4.63;;;;;;;12.74;75.64;103198.94;5068765;28;20489;-83
2022/03/18 08:21:22;;;;;;;15.20;3.75;;;;;;;13.11;74.64;103184.97;5049986;28;20443;-84
2022/03/18 08:23:48;;;;;;;12.23;3.20;;;;;;;13.67;73.25;103189.09;5055095;28;20032;-82
2022/03/18 08:26:14;;;;;;;10.68;2.75;;;;;;;14.00;71.65;103193.34;5052826;28;20029;-83
2022/03/18 08:28:39;;;;;;;11.93;2.97;;;;;;;14.47;70.20;103190.84;5054208;28;20028;-83
2022/03/18 08:31:05;;;;;;;5.38;2.58;;;;;;;14.86;69.25;103190.81;5052727;28;20035;-84
2022/03/18 08:33:32;;;;;;;10.30;2.70;;;;;;;15.18;66.92;103201.31;5061066;28;20075;-81
2022/03/18 08:35:58;;;;;;;12.57;2.53;;;;;;;15.38;64.16;103202.13;5036420;28;20032;-84
2022/03/18 08:38:23;;;;;;;13.63;3.00;;;;;;;15.58;64.73;103192.03;5053524;28;20047;-83
2022/03/18 08:40:49;;;;;;;11.18;3.75;;;;;;;15.92;63.35;103180.63;5067471;28;20041;-85
2022/03/18 08:43:15;;;;;;;10.63;2.40;;;;;;;16.32;63.54;103197.50;5067507;28;20462;-84
2022/03/18 08:45:40;;;;;;;13.00;5.07;;;;;;;16.80;60.73;103201.69;5046089;28;20059;-83
2022/03/18 08:48:07;;;;;;;8.23;3.67;;;;;;;17.08;60.66;103205.16;5051596;28;20064;-82
2022/03/18 08:50:33;;;;;;;10.63;3.80;;;;;;;17.47;59.84;103211.00;5049823;28;20124;-83
2022/03/18 08:52:58;;;;;;;14.10;3.55;;;;;;;17.75;55.25;103208.06;5049971;28;20033;-85
2022/03/18 08:55:25;;;;;;;10.18;3.28;;;;;;;17.61;55.73;103206.81;5068908;28;20023;-84
2022/03/18 08:57:50;;;;;;;18.48;4.03;;;;;;;17.60;54.98;103194.25;5034384;28;20044;-83
2022/03/18 09:00:18;;;;;;;9.73;3.20;;;;;;;17.72;54.49;103203.78;5046738;28;20082;-78
2022/03/18 09:02:47;;;;;;;12.50;3.90;;;;;;;17.56;54.15;103210.00;5063557;28;20116;-80
2022/03/18 09:05:13;;;;;;;12.27;4.88;;;;;;;17.61;54.24;103214.13;5035417;28;20098;-80
2022/03/18 09:07:39;;;;;;;11.40;3.17;;;;;;;17.70;53.91;103207.69;5045747;28;20074;-82
2022/03/18 09:10:06;;;;;;;14.02;4.15;;;;;;;18.10;52.54;103203.44;5050250;28;20036;-80
2022/03/18 09:12:32;;;;;;;17.73;5.03;;;;;;;18.59;50.41;103217.16;5067591;28;20036;-79
2022/03/18 09:14:58;;;;;;;11.60;7.57;;;;;;;18.76;50.08;103210.72;5035286;28;20097;-80
2022/03/18 09:17:24;;;;;;;27.73;13.85;;;;;;;18.84;51.03;103212.56;5064687;28;20433;-78
2022/03/18 09:19:50;;;;;;;11.00;4.65;;;;;;;19.19;48.88;103226.88;5064171;28;20036;-80
2022/03/18 09:22:16;;;;;;;16.77;7.93;;;;;;;19.41;47.98;103212.50;5028751;28;20655;-82
2022/03/18 09:24:43;;;;;;;11.10;5.50;;;;;;;19.55;46.38;103216.38;5044535;28;20040;-79
2022/03/18 09:27:12;;;;;;;11.38;4.13;;;;;;;19.64;46.43;103218.06;5063480;28;20029;-80
2022/03/18 09:29:39;;;;;;;17.67;6.45;;;;;;;19.76;45.96;103218.53;5035055;28;20035;-80
2022/03/18 09:32:05;;;;;;;16.90;6.70;;;;;;;19.99;45.57;103219.47;5067127;28;20078;-80
2022/03/18 09:34:31;;;;;;;8.60;2.90;;;;;;;19.85;41.90;103214.75;5048227;28;20117;-79
2022/03/18 09:36:58;;;;;;;8.80;2.95;;;;;;;19.78;42.38;103211.03;5062357;28;20116;-81
2022/03/18 09:39:25;;;;;;;9.90;4.25;;;;;;;19.69;43.47;103195.72;5065620;28;20036;-81
2022/03/18 09:41:51;;;;;;;13.85;5.35;;;;;;;20.28;43.68;103217.09;5061265;28;21065;-80
2022/03/18 09:44:17;;;;;;;9.25;3.63;;;;;;;20.16;42.25;103220.25;5051547;28;20051;-79
2022/03/18 09:46:46;;;;;;;10.43;4.40;;;;;;;20.18;40.93;103215.41;5063418;28;20028;-78
2022/03/18 09:49:17;;;;;;;8.07;3.50;;;;;;;20.54;41.53;103217.63;5050436;28;20032;-80
2022/03/18 09:51:45;;;;;;;9.27;3.65;;;;;;;20.57;41.02;103202.72;5053504;28;20032;-79
2022/03/18 09:54:13;;;;;;;11.00;4.20;;;;;;;21.05;40.60;103209.63;5068608;28;20059;-80
2022/03/18 09:56:40;;;;;;;11.63;3.90;;;;;;;21.26;39.18;103210.81;5062458;28;20413;-81
2022/03/18 09:59:06;;;;;;;6.90;3.13;;;;;;;21.45;38.72;103213.00;5068280;28;20028;-79
2022/03/18 10:01:31;;;;;;;14.93;5.72;;;;;;;21.20;39.44;103212.41;5050847;28;20350;-80
2022/03/18 10:04:05;;;;;;;19.23;6.30;;;;;;;21.49;38.08;103217.06;5054725;28;20043;-80
2022/03/18 10:06:32;;;;;;;7.55;2.55;;;;;;;21.38;38.21;103190.19;5074130;28;20028;-80
2022/03/18 10:08:59;;;;;;;17.48;7.93;;;;;;;21.32;37.63;103195.50;5056040;28;20024;-79
2022/03/18 10:11:33;;;;;;;12.18;6.00;;;;;;;21.56;37.97;103200.72;5059951;28;20039;-81
2022/03/18 10:14:01;;;;;;;14.32;6.22;;;;;;;22.03;38.11;103212.28;5032863;28;20032;-82
2022/03/18 10:16:31;;;;;;;18.10;7.63;;;;;;;22.46;35.67;103218.69;5060032;28;20040;-83
2022/03/18 10:18:56;;;;;;;10.85;3.95;;;;;;;22.41;35.29;103212.09;5068496;28;20099;-81
2022/03/18 10:21:22;;;;;;;23.23;10.27;;;;;;;22.30;35.38;103214.28;5067233;28;20111;-80
2022/03/18 10:23:48;;;;;;;5.60;3.30;;;;;;;22.16;35.50;103221.50;5050989;28;20033;-83
2022/03/18 10:26:15;;;;;;;7.82;3.30;;;;;;;22.01;35.68;103209.72;5053090;28;20032;-81
2022/03/18 10:28:43;;;;;;;9.85;5.07;;;;;;;22.44;34.54;103223.53;5036242;28;20036;-80
2022/03/18 10:31:18;;;;;;;10.30;5.18;;;;;;;22.70;33.81;103213.84;5070588;28;20064;-79
2022/03/18 10:37:05;;;;;;;10.40;3.13;;;;;;;22.64;33.98;103218.22;5058917;28;20040;-79
2022/03/18 10:39:34;;;;;;;;;;;;;;;22.93;33.42;103238.31;5057029;28;20036;-80
2022/03/18 10:42:03;;;;;;;5.18;2.25;;;;;;;23.10;32.43;103217.81;5057122;28;19920;-83
2022/03/18 10:44:49;;;;;;;3.05;1.63;;;;;;;22.94;33.02;103231.78;5073837;28;20040;-80
2022/03/18 10:47:36;;;;;;;8.82;2.67;;;;;;;22.94;33.41;103235.38;5075268;28;20083;-80
2022/03/18 10:50:11;;;;;;;7.93;2.45;;;;;;;23.37;33.99;103237.22;5066533;28;20038;-79
2022/03/18 10:52:39;;;;;;;8.07;2.95;;;;;;;23.84;32.90;103236.44;5075993;28;20040;-80
2022/03/18 10:55:39;;;;;;;9.35;2.92;;;;;;;24.10;32.51;103227.44;5073683;28;20477;-81
2022/03/18 10:58:16;;;;;;;6.93;2.70;;;;;;;24.11;32.66;103228.28;5073053;28;20040;-80
2022/03/18 11:00:44;;;;;;;7.28;2.90;;;;;;;24.01;32.02;103214.94;5056681;28;20093;-79
2022/03/18 11:03:10;;;;;;;5.95;1.98;;;;;;;23.97;31.31;103221.03;5074100;28;20024;-80
2022/03/18 11:05:40;;;;;;;6.65;2.05;;;;;;;23.80;31.50;103218.66;5072575;28;20543;-80
2022/03/18 11:08:10;;;;;;;5.20;2.00;;;;;;;23.30;31.50;103220.69;5072036;28;20054;-79
2022/03/18 11:13:28;;;;;;;9.73;2.67;;;;;;;22.73;32.82;103213.44;5069592;28;20020;-82
2022/03/18 11:15:54;;;;;;;4.22;2.10;;;;;;;23.11;31.79;103216.75;5081669;28;20101;-80
2022/03/18 11:18:20;;;;;;;5.72;2.20;;;;;;;22.92;31.66;103204.56;5055539;28;20123;-81
2022/03/18 11:20:50;;;;;;;4.35;1.80;;;;;;;22.86;32.51;103223.69;5072622;28;20116;-79
2022/03/18 11:23:22;;;;;;;7.03;2.50;;;;;;;23.15;31.92;103229.00;5056406;28;20119;-80
2022/03/18 11:26:01;;;;;;;5.40;2.38;;;;;;;23.17;31.50;103226.91;5072035;28;20024;-80
2022/03/18 11:28:28;;;;;;;7.00;2.03;;;;;;;23.16;31.46;103214.25;5070145;28;20074;-78
2022/03/18 11:31:05;;;;;;;5.47;2.15;;;;;;;23.22;30.92;103221.69;5037209;28;20097;-82
2022/03/18 11:33:31;;;;;;;12.52;2.65;;;;;;;22.95;31.36;103222.50;5039725;28;20029;-85